Time;durP1;ratioP1;P1;durP2;ratioP2;P2;SDS_P1;SDS_P2;PMS_P1;PMS_P2;Temp;Humidity;BMP_temperature;BMP_pressure;BME280_temperature;BME280_humidity;BME280_pressure;Samples;Min_cycle;Max_cycle;Signal;HPM_P1;HPM_P2
2024/03/22 00:02:18;;;;;;;67.68;41.88;;;;;;;;;;4961867;28;25083;-74
2024/03/22 00:04:44;;;;;;;62.75;40.90;;;;;;;;;;4964304;28;25102;-74
2024/03/22 00:07:10;;;;;;;67.35;42.47;;;;;;;;;;4975589;28;25137;-75
2024/03/22 00:09:36;;;;;;;67.38;42.45;;;;;;;;;;4974571;28;25165;-74
2024/03/22 00:12:01;;;;;;;72.93;43.28;;;;;;;;;;4970749;28;25086;-75
2024/03/22 00:14:28;;;;;;;68.07;43.83;;;;;;;;;;4964953;28;25059;-74
2024/03/22 00:16:54;;;;;;;62.40;41.22;;;;;;;;;;4964368;28;25132;-74
2024/03/22 00:19:19;;;;;;;69.30;42.03;;;;;;;;;;4966775;28;25050;-72
2024/03/22 00:21:45;;;;;;;68.28;41.47;;;;;;;;;;4961407;28;25058;-72
2024/03/22 00:24:11;;;;;;;75.55;44.20;;;;;;;;;;4966199;28;25072;-73
2024/03/22 00:26:37;;;;;;;65.70;41.78;;;;;;;;;;4956680;28;25066;-74
2024/03/22 00:29:03;;;;;;;70.38;41.38;;;;;;;;;;4959281;28;25067;-73
2024/03/22 00:31:29;;;;;;;75.28;44.17;;;;;;;;;;4963349;28;25060;-74
2024/03/22 00:33:55;;;;;;;76.53;43.80;;;;;;;;;;4955022;28;25113;-73
2024/03/22 00:36:21;;;;;;;71.13;41.75;;;;;;;;;;4961446;28;25107;-73
2024/03/22 00:38:47;;;;;;;65.40;42.00;;;;;;;;;;4965542;28;25083;-73
2024/03/22 00:41:13;;;;;;;73.50;43.20;;;;;;;;;;4964910;28;25061;-71
2024/03/22 00:43:39;;;;;;;69.68;42.65;;;;;;;;;;4964845;28;25073;-72
2024/03/22 00:46:05;;;;;;;65.72;43.47;;;;;;;;;;4980414;28;25077;-73
2024/03/22 00:48:31;;;;;;;72.28;43.75;;;;;;;;;;4958463;28;25072;-72
2024/03/22 00:50:57;;;;;;;69.10;44.45;;;;;;;;;;4968860;28;25141;-74
2024/03/22 00:53:23;;;;;;;67.63;40.95;;;;;;;;;;4955007;28;25143;-72
2024/03/22 00:55:51;;;;;;;66.85;39.80;;;;;;;;;;4964385;28;25079;-72
2024/03/22 00:58:18;;;;;;;61.80;39.83;;;;;;;;;;4965330;28;25085;-72
2024/03/22 01:00:44;;;;;;;67.25;39.63;;;;;;;;;;4957090;28;25108;-74
2024/03/22 01:03:10;;;;;;;54.10;35.17;;;;;;;;;;4955278;28;25057;-74
2024/03/22 01:05:36;;;;;;;56.92;37.58;;;;;;;;;;4953410;28;25148;-76
2024/03/22 01:08:02;;;;;;;60.00;34.42;;;;;;;;;;4956958;28;25121;-72
2024/03/22 01:10:28;;;;;;;53.30;33.30;;;;;;;;;;4963571;28;25075;-73
2024/03/22 01:12:54;;;;;;;59.97;33.25;;;;;;;;;;4956961;28;25147;-73
2024/03/22 01:15:20;;;;;;;50.05;31.35;;;;;;;;;;4959309;28;25093;-72
2024/03/22 01:17:46;;;;;;;51.63;30.88;;;;;;;;;;4961844;28;25169;-72
2024/03/22 01:20:12;;;;;;;53.80;32.17;;;;;;;;;;4958992;28;25140;-73
2024/03/22 01:22:40;;;;;;;54.22;32.08;;;;;;;;;;4961583;28;25103;-71
2024/03/22 01:25:06;;;;;;;50.05;31.75;;;;;;;;;;4963229;28;25070;-73
2024/03/22 01:27:32;;;;;;;52.28;32.03;;;;;;;;;;4963576;28;25163;-72
2024/03/22 01:29:58;;;;;;;56.88;32.78;;;;;;;;;;4972984;28;25071;-74
2024/03/22 01:32:24;;;;;;;56.58;32.67;;;;;;;;;;4973453;28;24811;-73
2024/03/22 01:34:50;;;;;;;59.95;33.58;;;;;;;;;;4966564;28;25063;-72
2024/03/22 01:37:15;;;;;;;61.35;32.80;;;;;;;;;;4961071;28;25095;-73
2024/03/22 01:39:42;;;;;;;60.35;34.17;;;;;;;;;;4968159;28;25060;-71
2024/03/22 01:42:07;;;;;;;61.63;33.58;;;;;;;;;;4964156;28;25067;-71
2024/03/22 01:44:33;;;;;;;65.18;36.85;;;;;;;;;;4967546;28;25069;-72
2024/03/22 01:47:00;;;;;;;68.30;38.72;;;;;;;;;;4967729;28;25077;-72
2024/03/22 01:49:26;;;;;;;73.95;39.85;;;;;;;;;;4962811;28;25074;-72
2024/03/22 01:51:53;;;;;;;68.47;38.90;;;;;;;;;;4971570;28;25064;-73
2024/03/22 01:54:20;;;;;;;76.80;42.97;;;;;;;;;;4988837;28;25074;-71
2024/03/22 01:56:46;;;;;;;78.03;43.17;;;;;;;;;;4995510;28;25087;-71
2024/03/22 01:59:12;;;;;;;82.60;45.20;;;;;;;;;;4981974;28;25072;-70
2024/03/22 02:01:38;;;;;;;89.20;48.67;;;;;;;;;;4990859;28;25139;-72
2024/03/22 02:04:04;;;;;;;80.40;46.63;;;;;;;;;;4983109;28;25098;-73
2024/03/22 02:06:30;;;;;;;86.68;47.88;;;;;;;;;;4979758;28;25054;-72
2024/03/22 02:08:57;;;;;;;83.22;47.88;;;;;;;;;;4975212;28;25175;-72
2024/03/22 02:11:23;;;;;;;89.65;49.55;;;;;;;;;;4970041;28;25057;-76
2024/03/22 02:13:49;;;;;;;90.03;49.45;;;;;;;;;;4974049;28;25066;-75
2024/03/22 02:16:15;;;;;;;94.43;51.13;;;;;;;;;;4975324;28;25062;-72
2024/03/22 02:18:41;;;;;;;96.22;51.60;;;;;;;;;;4964100;28;25080;-73
2024/03/22 02:21:07;;;;;;;99.65;54.08;;;;;;;;;;4971138;28;25096;-73
2024/03/22 02:23:33;;;;;;;100.30;54.63;;;;;;;;;;4959337;28;25085;-73
2024/03/22 02:26:00;;;;;;;99.80;54.88;;;;;;;;;;4965546;28;25053;-73
2024/03/22 02:28:26;;;;;;;101.68;54.35;;;;;;;;;;4964390;28;25093;-72
2024/03/22 02:30:52;;;;;;;95.43;52.67;;;;;;;;;;4963960;28;25101;-73
2024/03/22 02:33:18;;;;;;;99.78;54.22;;;;;;;;;;4958330;28;25148;-71
2024/03/22 02:35:44;;;;;;;99.70;53.35;;;;;;;;;;4962573;28;25113;-73
2024/03/22 02:38:10;;;;;;;92.15;51.03;;;;;;;;;;4956942;28;25050;-74
2024/03/22 02:40:36;;;;;;;94.50;53.08;;;;;;;;;;4957571;28;25049;-73
2024/03/22 02:43:02;;;;;;;98.15;53.92;;;;;;;;;;4961883;28;25137;-74
2024/03/22 02:45:28;;;;;;;93.22;52.75;;;;;;;;;;4960672;28;25075;-75
2024/03/22 02:47:54;;;;;;;87.75;52.30;;;;;;;;;;4967704;28;25077;-73
2024/03/22 02:50:20;;;;;;;87.72;51.80;;;;;;;;;;4963947;28;25095;-73
2024/03/22 02:52:46;;;;;;;94.10;52.17;;;;;;;;;;4966078;28;25059;-72
2024/03/22 02:55:12;;;;;;;88.25;50.72;;;;;;;;;;4962550;28;25053;-72
2024/03/22 02:57:38;;;;;;;88.65;50.33;;;;;;;;;;4968216;28;25081;-73
2024/03/22 03:00:04;;;;;;;84.22;49.88;;;;;;;;;;4965796;28;25101;-72
2024/03/22 03:02:30;;;;;;;90.18;49.60;;;;;;;;;;4968038;28;25056;-71
2024/03/22 03:04:57;;;;;;;85.47;50.17;;;;;;;;;;4969112;28;25096;-70
2024/03/22 03:07:23;;;;;;;86.40;48.30;;;;;;;;;;4956366;28;25140;-73
2024/03/22 03:09:49;;;;;;;93.32;50.00;;;;;;;;;;4967800;28;25078;-73
2024/03/22 03:12:15;;;;;;;89.25;49.25;;;;;;;;;;4960980;28;25078;-73
2024/03/22 03:14:41;;;;;;;88.32;52.40;;;;;;;;;;4971230;28;25065;-72
2024/03/22 03:17:07;;;;;;;79.32;48.90;;;;;;;;;;4962401;28;25069;-72
2024/03/22 03:19:33;;;;;;;78.50;44.10;;;;;;;;;;4970913;28;25059;-72
2024/03/22 03:21:59;;;;;;;84.00;46.13;;;;;;;;;;4979554;28;25070;-74
2024/03/22 03:24:26;;;;;;;83.53;49.25;;;;;;;;;;4961966;28;25051;-74
2024/03/22 03:26:52;;;;;;;86.88;48.58;;;;;;;;;;4963272;28;25057;-73
2024/03/22 03:29:17;;;;;;;82.30;47.53;;;;;;;;;;4962024;28;25068;-73
2024/03/22 03:31:44;;;;;;;84.40;49.03;;;;;;;;;;4963230;28;25054;-74
2024/03/22 03:34:10;;;;;;;82.13;48.30;;;;;;;;;;4959867;28;25076;-75
2024/03/22 03:36:36;;;;;;;84.32;48.97;;;;;;;;;;4966782;28;25142;-73
2024/03/22 03:39:02;;;;;;;78.22;46.75;;;;;;;;;;4967321;28;25172;-73
2024/03/22 03:41:28;;;;;;;79.57;46.47;;;;;;;;;;4994204;28;25063;-73
2024/03/22 03:43:54;;;;;;;74.93;44.90;;;;;;;;;;4980418;28;25081;-74
2024/03/22 03:46:20;;;;;;;72.55;44.60;;;;;;;;;;4989187;28;25063;-72
2024/03/22 03:48:46;;;;;;;78.78;48.58;;;;;;;;;;4964157;28;25043;-73
2024/03/22 03:51:12;;;;;;;69.50;44.40;;;;;;;;;;4979372;28;25072;-74
2024/03/22 03:53:38;;;;;;;70.95;45.03;;;;;;;;;;4964189;28;25089;-73
2024/03/22 03:56:04;;;;;;;77.03;46.50;;;;;;;;;;4964120;28;25083;-73
2024/03/22 03:58:30;;;;;;;77.57;47.42;;;;;;;;;;4959649;28;25077;-73
2024/03/22 04:00:56;;;;;;;79.40;47.40;;;;;;;;;;4968866;28;25074;-73
2024/03/22 04:03:22;;;;;;;78.72;45.10;;;;;;;;;;4969401;28;25088;-73
2024/03/22 04:05:56;;;;;;;75.30;43.22;;;;;;;;;;4971197;28;25097;-73
2024/03/22 04:08:22;;;;;;;74.50;43.78;;;;;;;;;;4965689;28;25078;-74
2024/03/22 04:10:52;;;;;;;73.80;43.58;;;;;;;;;;4966282;28;25072;-74
2024/03/22 04:13:18;;;;;;;74.18;44.03;;;;;;;;;;4961018;28;25065;-72
2024/03/22 04:15:44;;;;;;;70.32;42.65;;;;;;;;;;4959846;28;25235;-72
2024/03/22 04:18:10;;;;;;;69.55;42.42;;;;;;;;;;4955192;28;25135;-74
2024/03/22 04:20:36;;;;;;;64.13;40.97;;;;;;;;;;4958352;28;25095;-73
2024/03/22 04:23:02;;;;;;;63.95;39.22;;;;;;;;;;4962523;28;25091;-72
2024/03/22 04:25:28;;;;;;;72.28;39.92;;;;;;;;;;4961235;28;25141;-72
2024/03/22 04:27:54;;;;;;;61.63;38.50;;;;;;;;;;4962606;28;25107;-72
2024/03/22 04:30:20;;;;;;;65.82;39.20;;;;;;;;;;4961176;28;25048;-72
2024/03/22 04:32:48;;;;;;;59.40;36.95;;;;;;;;;;4963089;28;25097;-73
2024/03/22 04:35:14;;;;;;;62.97;38.05;;;;;;;;;;4958567;28;25062;-75
2024/03/22 04:37:40;;;;;;;57.72;36.70;;;;;;;;;;4963034;28;25070;-73
2024/03/22 04:40:06;;;;;;;64.53;38.70;;;;;;;;;;4964080;28;25069;-73
2024/03/22 04:42:32;;;;;;;56.80;36.63;;;;;;;;;;4966848;28;25084;-73
2024/03/22 04:44:59;;;;;;;54.45;34.22;;;;;;;;;;4966139;28;25075;-73
2024/03/22 04:47:25;;;;;;;54.47;31.70;;;;;;;;;;4960770;28;25160;-73
2024/03/22 04:49:51;;;;;;;52.10;33.63;;;;;;;;;;4959302;28;25060;-74
2024/03/22 04:52:17;;;;;;;50.95;31.98;;;;;;;;;;4963921;28;25128;-73
2024/03/22 04:54:43;;;;;;;49.28;31.67;;;;;;;;;;4967582;28;25062;-73
2024/03/22 04:57:09;;;;;;;46.88;31.10;;;;;;;;;;4966584;28;25146;-76
2024/03/22 04:59:34;;;;;;;52.30;31.25;;;;;;;;;;4954286;28;25062;-74
2024/03/22 05:02:00;;;;;;;50.20;32.58;;;;;;;;;;4963738;28;25085;-74
2024/03/22 05:04:26;;;;;;;50.72;31.23;;;;;;;;;;4964279;28;25058;-73
2024/03/22 05:06:52;;;;;;;51.25;32.38;;;;;;;;;;4974973;28;25050;-74
2024/03/22 05:09:18;;;;;;;56.33;34.63;;;;;;;;;;4973937;28;25042;-75
2024/03/22 05:11:49;;;;;;;54.08;31.88;;;;;;;;;;4965621;28;25064;-73
2024/03/22 05:14:15;;;;;;;51.67;32.38;;;;;;;;;;4958327;28;25094;-72
2024/03/22 05:16:41;;;;;;;56.03;30.58;;;;;;;;;;4972635;28;25098;-73
2024/03/22 05:19:07;;;;;;;53.80;31.90;;;;;;;;;;4964278;28;25063;-73
2024/03/22 05:21:34;;;;;;;49.15;29.67;;;;;;;;;;4962692;28;25055;-71
2024/03/22 05:23:59;;;;;;;51.10;31.90;;;;;;;;;;4968652;28;25051;-74
2024/03/22 05:26:25;;;;;;;51.33;30.73;;;;;;;;;;4968807;28;25139;-72
2024/03/22 05:28:52;;;;;;;47.20;29.80;;;;;;;;;;4966046;28;25128;-74
2024/03/22 05:31:18;;;;;;;51.83;30.00;;;;;;;;;;4969761;28;25159;-75
2024/03/22 05:33:44;;;;;;;57.13;30.50;;;;;;;;;;4968017;28;25050;-73
2024/03/22 05:36:10;;;;;;;50.63;29.98;;;;;;;;;;4965683;28;25108;-73
2024/03/22 05:38:36;;;;;;;49.92;29.55;;;;;;;;;;4979959;28;25071;-71
2024/03/22 05:41:05;;;;;;;52.22;30.45;;;;;;;;;;4969082;28;25108;-73
2024/03/22 05:43:32;;;;;;;45.40;29.55;;;;;;;;;;4969327;28;25120;-74
2024/03/22 05:45:58;;;;;;;48.95;29.25;;;;;;;;;;4961440;28;25113;-73
2024/03/22 05:48:24;;;;;;;48.15;30.42;;;;;;;;;;4967001;28;25076;-74
2024/03/22 05:50:50;;;;;;;47.53;29.38;;;;;;;;;;4968272;28;25053;-73
2024/03/22 05:53:16;;;;;;;53.33;32.40;;;;;;;;;;4966130;28;25161;-72
2024/03/22 05:55:43;;;;;;;51.05;28.65;;;;;;;;;;4979145;28;25126;-73
2024/03/22 05:58:09;;;;;;;49.35;29.80;;;;;;;;;;4980865;28;25096;-73
2024/03/22 06:00:35;;;;;;;51.85;31.20;;;;;;;;;;4972729;28;25051;-76
2024/03/22 06:03:01;;;;;;;61.13;30.55;;;;;;;;;;4977758;28;25097;-73
2024/03/22 06:05:27;;;;;;;43.55;28.20;;;;;;;;;;4966209;28;25085;-74
2024/03/22 06:07:53;;;;;;;51.78;29.77;;;;;;;;;;4966574;28;25076;-74
2024/03/22 06:10:19;;;;;;;44.72;30.27;;;;;;;;;;4984345;28;25092;-77
2024/03/22 06:12:47;;;;;;;47.80;28.83;;;;;;;;;;4966384;28;25082;-74
2024/03/22 06:15:13;;;;;;;50.15;30.83;;;;;;;;;;4970578;28;25069;-76
2024/03/22 06:17:39;;;;;;;53.67;31.15;;;;;;;;;;4968478;28;25101;-74
2024/03/22 06:20:05;;;;;;;59.30;32.13;;;;;;;;;;4968550;28;25074;-75
2024/03/22 06:22:31;;;;;;;52.83;31.25;;;;;;;;;;4966845;28;25044;-75
2024/03/22 06:24:58;;;;;;;53.00;33.20;;;;;;;;;;4966989;28;25046;-75
2024/03/22 06:27:24;;;;;;;55.67;32.78;;;;;;;;;;4965337;28;25100;-74
2024/03/22 06:29:50;;;;;;;51.03;32.50;;;;;;;;;;4966000;28;25162;-74
2024/03/22 06:32:16;;;;;;;52.25;32.75;;;;;;;;;;4966096;28;25067;-73
2024/03/22 06:34:42;;;;;;;57.67;33.45;;;;;;;;;;4966691;28;25054;-75
2024/03/22 06:37:08;;;;;;;59.30;35.08;;;;;;;;;;4966968;28;25109;-75
2024/03/22 06:39:34;;;;;;;55.53;34.95;;;;;;;;;;4963158;28;25064;-75
2024/03/22 06:42:02;;;;;;;62.38;34.92;;;;;;;;;;4962076;28;25069;-76
2024/03/22 06:44:28;;;;;;;62.10;35.45;;;;;;;;;;4961140;28;25094;-75
2024/03/22 06:46:54;;;;;;;66.55;36.78;;;;;;;;;;4961644;28;25017;-72
2024/03/22 06:49:20;;;;;;;62.80;34.78;;;;;;;;;;4963326;28;25152;-75
2024/03/22 06:51:46;;;;;;;62.22;34.38;;;;;;;;;;4964281;28;25057;-74
2024/03/22 06:54:11;;;;;;;60.95;35.42;;;;;;;;;;4970356;28;25075;-74
2024/03/22 06:56:37;;;;;;;65.68;37.05;;;;;;;;;;4973042;28;25062;-78
2024/03/22 06:59:03;;;;;;;64.00;35.83;;;;;;;;;;4965818;28;25104;-74
2024/03/22 07:01:29;;;;;;;59.70;36.67;;;;;;;;;;4969527;28;25098;-74
2024/03/22 07:03:55;;;;;;;61.53;35.42;;;;;;;;;;4964203;28;25098;-76
2024/03/22 07:06:21;;;;;;;64.22;37.97;;;;;;;;;;4968582;28;25098;-77
2024/03/22 07:08:47;;;;;;;64.68;39.45;;;;;;;;;;4963136;28;25058;-75
2024/03/22 07:11:13;;;;;;;65.00;39.75;;;;;;;;;;4966751;28;25069;-76
2024/03/22 07:13:39;;;;;;;70.07;39.22;;;;;;;;;;4963396;28;25123;-74
2024/03/22 07:16:05;;;;;;;64.90;38.40;;;;;;;;;;4968816;28;25066;-73
2024/03/22 07:18:31;;;;;;;64.95;36.65;;;;;;;;;;4970119;28;25059;-73
2024/03/22 07:21:02;;;;;;;67.07;37.60;;;;;;;;;;4968369;28;25067;-73
2024/03/22 07:23:28;;;;;;;59.85;37.47;;;;;;;;;;4961447;28;25050;-75
2024/03/22 07:25:54;;;;;;;59.33;36.75;;;;;;;;;;4963253;28;25164;-75
2024/03/22 07:28:21;;;;;;;62.03;36.17;;;;;;;;;;4978996;28;25074;-76
2024/03/22 07:30:47;;;;;;;54.85;36.30;;;;;;;;;;4980659;28;25051;-73
2024/03/22 07:33:16;;;;;;;56.60;35.17;;;;;;;;;;4984947;28;25046;-74
2024/03/22 07:35:42;;;;;;;63.65;37.03;;;;;;;;;;4971568;28;25081;-74
2024/03/22 07:38:08;;;;;;;56.50;34.90;;;;;;;;;;4969999;28;25125;-74
2024/03/22 07:40:34;;;;;;;62.65;38.92;;;;;;;;;;4968646;28;25138;-74
2024/03/22 07:43:05;;;;;;;60.20;36.88;;;;;;;;;;4969762;28;25069;-74
2024/03/22 07:45:31;;;;;;;63.88;36.33;;;;;;;;;;4973318;28;25094;-73
2024/03/22 07:47:57;;;;;;;59.80;35.75;;;;;;;;;;4970164;28;25101;-74
2024/03/22 07:50:23;;;;;;;60.65;34.58;;;;;;;;;;4963279;28;25159;-72
2024/03/22 07:52:50;;;;;;;51.33;34.40;;;;;;;;;;4968304;28;25071;-74
2024/03/22 07:55:16;;;;;;;62.45;36.40;;;;;;;;;;4972613;28;25078;-74
2024/03/22 07:57:42;;;;;;;61.50;33.92;;;;;;;;;;4968426;28;25047;-73
2024/03/22 08:00:08;;;;;;;53.40;33.10;;;;;;;;;;4968560;28;25084;-76
2024/03/22 08:02:36;;;;;;;49.90;33.67;;;;;;;;;;4964191;28;25077;-74
2024/03/22 08:05:02;;;;;;;56.13;33.67;;;;;;;;;;4960688;28;25057;-73
2024/03/22 08:07:29;;;;;;;50.35;32.92;;;;;;;;;;4972142;28;25073;-75
2024/03/22 08:09:55;;;;;;;53.58;32.55;;;;;;;;;;4963740;28;25063;-74
2024/03/22 08:12:21;;;;;;;49.92;33.28;;;;;;;;;;4972582;28;25074;-75
2024/03/22 08:14:47;;;;;;;51.53;31.25;;;;;;;;;;4968471;28;25069;-73
2024/03/22 08:17:14;;;;;;;52.15;30.63;;;;;;;;;;4956217;28;25076;-74
2024/03/22 08:19:40;;;;;;;51.78;31.38;;;;;;;;;;4965354;28;25068;-74
2024/03/22 08:22:06;;;;;;;46.83;29.60;;;;;;;;;;4971429;28;25114;-77
2024/03/22 08:24:33;;;;;;;46.67;28.48;;;;;;;;;;4961904;28;25082;-75
2024/03/22 08:26:59;;;;;;;50.05;29.08;;;;;;;;;;4968592;28;25053;-78
2024/03/22 08:29:25;;;;;;;48.72;28.23;;;;;;;;;;4959824;28;25102;-75
2024/03/22 08:31:51;;;;;;;48.25;27.33;;;;;;;;;;4957509;28;25109;-77
2024/03/22 08:34:17;;;;;;;44.83;25.50;;;;;;;;;;4972908;28;25064;-76
2024/03/22 08:36:43;;;;;;;39.15;25.75;;;;;;;;;;4968599;28;25077;-77
2024/03/22 08:39:10;;;;;;;39.05;24.30;;;;;;;;;;4957139;28;25132;-78
2024/03/22 08:41:36;;;;;;;41.42;24.45;;;;;;;;;;4949773;28;25089;-75
2024/03/22 08:44:02;;;;;;;47.45;23.80;;;;;;;;;;4966636;28;25091;-75
2024/03/22 08:46:28;;;;;;;34.22;23.25;;;;;;;;;;4964796;28;25080;-75
2024/03/22 08:48:54;;;;;;;40.25;22.38;;;;;;;;;;4967318;28;25054;-76
2024/03/22 08:51:21;;;;;;;41.13;21.35;;;;;;;;;;4968175;28;25089;-75
2024/03/22 08:53:47;;;;;;;35.42;21.67;;;;;;;;;;4973028;28;25153;-74
2024/03/22 08:56:13;;;;;;;41.85;22.88;;;;;;;;;;4971376;28;25089;-76
2024/03/22 08:58:40;;;;;;;43.85;22.45;;;;;;;;;;4963351;28;25079;-78
2024/03/22 09:01:06;;;;;;;38.75;21.55;;;;;;;;;;4966620;28;25139;-76
2024/03/22 09:03:32;;;;;;;41.88;24.98;;;;;;;;;;4966093;28;25075;-77
2024/03/22 09:05:58;;;;;;;40.45;21.63;;;;;;;;;;4967090;28;25185;-76
2024/03/22 09:08:24;;;;;;;45.58;20.95;;;;;;;;;;4962824;28;25052;-75
2024/03/22 09:10:50;;;;;;;39.28;21.42;;;;;;;;;;4958576;28;25112;-77
2024/03/22 09:13:16;;;;;;;48.17;23.35;;;;;;;;;;4966587;28;25113;-78
2024/03/22 09:15:42;;;;;;;39.63;21.48;;;;;;;;;;4967987;28;25067;-74
2024/03/22 09:18:08;;;;;;;47.05;20.35;;;;;;;;;;4963682;28;25085;-74
2024/03/22 09:20:34;;;;;;;40.08;19.20;;;;;;;;;;4968830;28;25167;-76
2024/03/22 09:23:00;;;;;;;37.33;19.92;;;;;;;;;;4963910;28;25072;-77
2024/03/22 09:25:26;;;;;;;50.00;20.38;;;;;;;;;;4961227;28;25120;-75
2024/03/22 09:27:52;;;;;;;41.83;19.85;;;;;;;;;;4961419;28;25094;-75
2024/03/22 09:30:18;;;;;;;38.72;19.45;;;;;;;;;;4960482;28;25075;-76
2024/03/22 09:32:45;;;;;;;43.30;19.92;;;;;;;;;;4968247;28;25092;-76
2024/03/22 09:35:14;;;;;;;44.30;19.95;;;;;;;;;;4959820;28;25062;-74
2024/03/22 09:37:40;;;;;;;44.53;19.23;;;;;;;;;;4966855;28;25062;-76
2024/03/22 09:40:07;;;;;;;52.05;21.55;;;;;;;;;;4967800;28;25082;-76
2024/03/22 09:42:33;;;;;;;44.13;21.60;;;;;;;;;;4957719;28;25092;-78
2024/03/22 09:45:00;;;;;;;41.25;19.65;;;;;;;;;;4969913;28;25065;-74
2024/03/22 09:47:26;;;;;;;47.70;20.73;;;;;;;;;;4959487;28;25079;-77
2024/03/22 09:49:53;;;;;;;44.00;20.13;;;;;;;;;;4963406;28;25050;-76
2024/03/22 09:52:20;;;;;;;43.63;20.70;;;;;;;;;;4966635;28;25072;-76
2024/03/22 09:54:46;;;;;;;47.20;21.10;;;;;;;;;;4955979;28;25068;-75
2024/03/22 09:57:16;;;;;;;40.40;20.00;;;;;;;;;;4957777;28;25059;-76
2024/03/22 09:59:43;;;;;;;39.13;19.35;;;;;;;;;;4975174;28;25056;-73
2024/03/22 10:02:11;;;;;;;37.30;19.45;;;;;;;;;;4973343;28;25067;-78
2024/03/22 10:04:37;;;;;;;43.92;19.88;;;;;;;;;;4979134;28;25137;-75
2024/03/22 10:07:04;;;;;;;37.92;18.83;;;;;;;;;;4987269;28;25062;-76
2024/03/22 10:09:30;;;;;;;43.90;22.40;;;;;;;;;;4990880;28;25092;-78
2024/03/22 10:11:56;;;;;;;32.83;18.33;;;;;;;;;;4977130;28;25070;-77
2024/03/22 10:14:25;;;;;;;35.67;20.27;;;;;;;;;;4971122;28;25067;-74
2024/03/22 10:16:53;;;;;;;41.17;20.80;;;;;;;;;;4963527;28;25077;-78
2024/03/22 10:19:19;;;;;;;39.55;17.98;;;;;;;;;;4963336;28;25079;-78
2024/03/22 10:21:45;;;;;;;36.53;20.70;;;;;;;;;;4966165;28;25074;-78
2024/03/22 10:24:11;;;;;;;37.17;19.88;;;;;;;;;;4967552;28;25102;-77
2024/03/22 10:26:37;;;;;;;44.97;20.33;;;;;;;;;;4963699;28;25148;-79
2024/03/22 10:29:08;;;;;;;42.33;20.38;;;;;;;;;;4958302;28;25058;-76
2024/03/22 10:31:35;;;;;;;38.53;20.20;;;;;;;;;;4961191;28;25065;-79
2024/03/22 10:34:05;;;;;;;41.38;22.08;;;;;;;;;;4965990;28;25098;-77
2024/03/22 10:36:32;;;;;;;49.20;20.42;;;;;;;;;;4964167;28;25108;-77
2024/03/22 10:38:59;;;;;;;48.78;21.65;;;;;;;;;;4968906;28;25174;-76
2024/03/22 10:41:26;;;;;;;37.08;17.77;;;;;;;;;;4973977;28;25078;-77
2024/03/22 10:43:52;;;;;;;38.88;20.83;;;;;;;;;;4969099;28;25075;-78
2024/03/22 10:46:20;;;;;;;40.75;19.90;;;;;;;;;;4967695;28;25096;-77
2024/03/22 10:48:47;;;;;;;46.00;19.80;;;;;;;;;;4966097;28;25065;-78
2024/03/22 10:51:13;;;;;;;44.60;22.65;;;;;;;;;;4966407;28;25068;-77
2024/03/22 10:53:40;;;;;;;46.72;19.98;;;;;;;;;;4970085;28;25094;-74
2024/03/22 10:56:08;;;;;;;47.72;19.33;;;;;;;;;;4964862;28;25062;-77
2024/03/22 10:58:34;;;;;;;37.70;17.95;;;;;;;;;;4965809;28;25056;-77
2024/03/22 11:01:00;;;;;;;39.55;20.50;;;;;;;;;;4973597;28;25050;-78
2024/03/22 11:03:28;;;;;;;48.33;20.35;;;;;;;;;;4964111;28;25047;-77
2024/03/22 11:05:56;;;;;;;36.67;18.02;;;;;;;;;;4964872;28;25094;-76
2024/03/22 11:08:25;;;;;;;50.30;20.25;;;;;;;;;;4958034;28;25096;-77
2024/03/22 11:10:51;;;;;;;37.30;17.02;;;;;;;;;;4968234;28;25202;-77
2024/03/22 11:13:18;;;;;;;38.95;18.15;;;;;;;;;;4969577;28;25100;-77
2024/03/22 11:15:44;;;;;;;36.47;16.83;;;;;;;;;;4980320;28;25123;-78
2024/03/22 11:18:10;;;;;;;50.90;20.17;;;;;;;;;;4995272;28;25059;-79
2024/03/22 11:20:39;;;;;;;33.15;17.55;;;;;;;;;;4995757;28;25046;-79
2024/03/22 11:23:05;;;;;;;28.02;16.35;;;;;;;;;;4988163;28;25084;-78
2024/03/22 11:25:34;;;;;;;27.70;16.30;;;;;;;;;;4999885;28;25058;-78
2024/03/22 11:28:01;;;;;;;28.33;15.73;;;;;;;;;;4985749;28;25075;-76
2024/03/22 11:30:30;;;;;;;35.85;16.05;;;;;;;;;;4983067;28;25056;-76
2024/03/22 11:32:56;;;;;;;28.75;14.73;;;;;;;;;;4980468;28;25094;-76
2024/03/22 11:35:23;;;;;;;31.60;15.85;;;;;;;;;;4983157;28;25057;-80
2024/03/22 11:37:51;;;;;;;31.23;15.52;;;;;;;;;;4983523;28;25185;-80
2024/03/22 11:40:17;;;;;;;30.52;15.77;;;;;;;;;;4967095;28;25098;-78
2024/03/22 11:42:45;;;;;;;29.38;15.10;;;;;;;;;;4974394;28;25136;-77
2024/03/22 11:45:13;;;;;;;26.05;13.40;;;;;;;;;;4974444;28;25086;-78
2024/03/22 11:47:39;;;;;;;29.52;15.02;;;;;;;;;;4977842;28;25047;-81
2024/03/22 11:50:05;;;;;;;21.95;12.98;;;;;;;;;;4967404;28;25063;-78
2024/03/22 11:52:31;;;;;;;23.13;13.10;;;;;;;;;;4966050;28;25078;-78
2024/03/22 11:54:57;;;;;;;18.85;13.88;;;;;;;;;;4982636;28;25150;-78
2024/03/22 11:57:24;;;;;;;25.42;13.18;;;;;;;;;;4961872;28;25094;-78
2024/03/22 11:59:51;;;;;;;20.75;12.85;;;;;;;;;;4963348;28;25053;-80
2024/03/22 12:02:18;;;;;;;20.17;13.48;;;;;;;;;;4964705;28;25067;-78
2024/03/22 12:04:46;;;;;;;19.55;12.77;;;;;;;;;;4962016;28;25114;-81
2024/03/22 12:07:16;;;;;;;24.52;13.98;;;;;;;;;;4959472;28;25078;-79
2024/03/22 12:09:42;;;;;;;19.98;13.80;;;;;;;;;;4960257;28;25132;-80
2024/03/22 12:12:09;;;;;;;21.55;14.45;;;;;;;;;;4963747;28;25065;-79
2024/03/22 12:14:35;;;;;;;25.02;15.02;;;;;;;;;;4956640;28;25085;-79
2024/03/22 12:17:02;;;;;;;21.38;14.32;;;;;;;;;;4965807;28;25064;-79
2024/03/22 12:19:28;;;;;;;23.38;14.65;;;;;;;;;;4966593;28;25065;-79
2024/03/22 12:21:54;;;;;;;27.73;13.68;;;;;;;;;;4968882;28;25094;-76
2024/03/22 12:24:20;;;;;;;23.35;12.68;;;;;;;;;;4966519;28;25079;-79
2024/03/22 12:26:45;;;;;;;23.73;12.68;;;;;;;;;;4959599;28;25072;-81
2024/03/22 12:29:13;;;;;;;17.63;10.77;;;;;;;;;;4957707;28;25069;-76
2024/03/22 12:31:39;;;;;;;21.15;11.40;;;;;;;;;;4971193;28;25122;-77
2024/03/22 12:34:05;;;;;;;18.38;10.98;;;;;;;;;;4969446;28;25044;-79
2024/03/22 12:36:31;;;;;;;18.17;10.35;;;;;;;;;;4966887;28;25071;-77
2024/03/22 12:38:59;;;;;;;16.40;9.77;;;;;;;;;;4963958;28;25069;-78
2024/03/22 12:41:25;;;;;;;19.23;11.30;;;;;;;;;;4966335;28;25081;-78
2024/03/22 12:43:51;;;;;;;21.88;11.35;;;;;;;;;;4964040;28;25065;-78
2024/03/22 12:46:17;;;;;;;20.30;10.43;;;;;;;;;;4964507;28;25085;-78
2024/03/22 12:48:43;;;;;;;21.20;12.43;;;;;;;;;;4972575;28;25082;-79
2024/03/22 12:51:09;;;;;;;22.40;12.80;;;;;;;;;;4963171;28;25082;-81
2024/03/22 12:53:35;;;;;;;20.75;11.73;;;;;;;;;;4969171;28;25104;-78
2024/03/22 12:56:03;;;;;;;23.58;13.23;;;;;;;;;;4965058;28;25080;-79
2024/03/22 12:58:29;;;;;;;22.17;13.18;;;;;;;;;;4967427;28;25073;-79
2024/03/22 13:00:55;;;;;;;19.05;12.57;;;;;;;;;;4965109;28;25066;-78
2024/03/22 13:03:21;;;;;;;19.60;12.80;;;;;;;;;;4962313;28;25186;-79
2024/03/22 13:05:47;;;;;;;26.40;13.40;;;;;;;;;;4965623;28;25072;-78
2024/03/22 13:08:13;;;;;;;23.48;12.38;;;;;;;;;;4965957;28;25065;-79
2024/03/22 13:10:43;;;;;;;17.50;11.85;;;;;;;;;;4968273;28;25088;-78
2024/03/22 13:13:09;;;;;;;24.17;12.95;;;;;;;;;;4968308;28;25076;-82
2024/03/22 13:15:36;;;;;;;19.27;11.90;;;;;;;;;;4967316;28;25135;-78
2024/03/22 13:18:03;;;;;;;17.15;10.23;;;;;;;;;;4969773;28;25109;-79
2024/03/22 13:20:29;;;;;;;17.83;9.32;;;;;;;;;;4964850;28;25070;-80
2024/03/22 13:22:55;;;;;;;17.58;11.63;;;;;;;;;;4971158;28;26176;-80
2024/03/22 13:25:21;;;;;;;14.38;9.43;;;;;;;;;;4969692;28;25135;-80
2024/03/22 13:27:47;;;;;;;13.07;8.93;;;;;;;;;;4972431;28;25062;-79
2024/03/22 13:30:14;;;;;;;14.80;9.10;;;;;;;;;;4960711;28;25054;-80
2024/03/22 13:32:40;;;;;;;14.10;8.77;;;;;;;;;;4967199;28;25063;-80
2024/03/22 13:35:07;;;;;;;12.25;9.00;;;;;;;;;;4969601;28;25104;-78
2024/03/22 13:37:33;;;;;;;15.15;10.45;;;;;;;;;;4971471;28;25085;-76
2024/03/22 13:39:59;;;;;;;16.85;11.48;;;;;;;;;;4965605;28;25112;-78
2024/03/22 13:42:26;;;;;;;17.08;12.40;;;;;;;;;;4962575;28;25108;-78
2024/03/22 13:44:52;;;;;;;21.77;12.85;;;;;;;;;;4987526;28;25101;-76
2024/03/22 13:47:18;;;;;;;19.27;12.00;;;;;;;;;;4969903;28;25059;-78
2024/03/22 13:49:45;;;;;;;22.80;14.13;;;;;;;;;;4968488;28;25090;-78
2024/03/22 13:52:11;;;;;;;25.27;17.40;;;;;;;;;;4965613;28;25108;-79
2024/03/22 13:54:37;;;;;;;31.08;21.48;;;;;;;;;;4964785;28;25064;-78
2024/03/22 13:57:03;;;;;;;34.50;22.35;;;;;;;;;;4965261;28;25052;-77
2024/03/22 13:59:29;;;;;;;32.40;22.88;;;;;;;;;;4968416;28;25148;-76
2024/03/22 14:01:56;;;;;;;43.63;21.63;;;;;;;;;;4973179;28;25082;-77
2024/03/22 14:04:22;;;;;;;34.92;22.42;;;;;;;;;;4988706;28;25100;-78
2024/03/22 14:06:49;;;;;;;37.58;21.65;;;;;;;;;;4990653;28;25105;-76
2024/03/22 14:09:15;;;;;;;34.00;19.15;;;;;;;;;;4989761;28;25053;-79
2024/03/22 14:11:42;;;;;;;31.08;18.50;;;;;;;;;;4989663;28;25089;-78